Terminal Aerodrome Forecast
Issued by NWS Sterling, VA

Current Version | Previous Version | Graphics & Text | Print | Product List | Glossary On
Versions: 1 2 3 4 5 6 7 8 9 10 11 12 13 14 15 16 17
645
FTUS41 KLWX 232320
TAFMRB
TAF
KMRB 232320Z 2400/2424 32005KT P6SM BKN060
     FM240500 VRB03KT P6SM SCT130
     FM240800 VRB03KT 5SM BR FEW130
     FM241200 31004KT P6SM FEW130
     FM241500 32009KT P6SM FEW050=

USA.gov is the U.S. government's official web portal to all federal, state and local government web resources and services.